sensor_id;sensor_type;location;lat;lon;timestamp;temperature;humidity
66035;HTU21D;52805;51.074;5.842;2022-12-08T00:00:01;6.43;84.02
66035;HTU21D;52805;51.074;5.842;2022-12-08T00:02:37;6.44;84.08
66035;HTU21D;52805;51.074;5.842;2022-12-08T00:05:03;6.43;83.92
66035;HTU21D;52805;51.074;5.842;2022-12-08T00:07:48;6.46;83.88
66035;HTU21D;52805;51.074;5.842;2022-12-08T00:10:32;6.43;83.90
66035;HTU21D;52805;51.074;5.842;2022-12-08T00:12:58;6.45;83.83
66035;HTU21D;52805;51.074;5.842;2022-12-08T00:15:23;6.48;83.90
66035;HTU21D;52805;51.074;5.842;2022-12-08T00:17:49;6.46;83.82
66035;HTU21D;52805;51.074;5.842;2022-12-08T00:20:14;6.49;83.77
66035;HTU21D;52805;51.074;5.842;2022-12-08T00:22:40;6.48;83.85
66035;HTU21D;52805;51.074;5.842;2022-12-08T00:25:06;6.53;83.82
66035;HTU21D;52805;51.074;5.842;2022-12-08T00:27:32;6.54;83.74
66035;HTU21D;52805;51.074;5.842;2022-12-08T00:29:57;6.53;83.67
66035;HTU21D;52805;51.074;5.842;2022-12-08T00:32:23;6.52;83.82
66035;HTU21D;52805;51.074;5.842;2022-12-08T00:34:48;6.54;83.66
66035;HTU21D;52805;51.074;5.842;2022-12-08T00:37:15;6.49;83.78
66035;HTU21D;52805;51.074;5.842;2022-12-08T00:39:40;6.46;83.81
66035;HTU21D;52805;51.074;5.842;2022-12-08T00:42:07;6.42;83.87
66035;HTU21D;52805;51.074;5.842;2022-12-08T00:44:42;6.38;84.00
66035;HTU21D;52805;51.074;5.842;2022-12-08T00:47:09;6.37;83.87
66035;HTU21D;52805;51.074;5.842;2022-12-08T00:49:35;6.34;83.97
66035;HTU21D;52805;51.074;5.842;2022-12-08T00:52:01;6.33;83.94
66035;HTU21D;52805;51.074;5.842;2022-12-08T00:54:27;6.28;84.10
66035;HTU21D;52805;51.074;5.842;2022-12-08T00:56:53;6.30;84.13
66035;HTU21D;52805;51.074;5.842;2022-12-08T00:59:18;6.34;84.06
66035;HTU21D;52805;51.074;5.842;2022-12-08T01:01:45;6.35;84.02
66035;HTU21D;52805;51.074;5.842;2022-12-08T01:04:14;6.37;83.94
66035;HTU21D;52805;51.074;5.842;2022-12-08T01:06:41;6.37;83.74
66035;HTU21D;52805;51.074;5.842;2022-12-08T01:09:08;6.38;83.68
66035;HTU21D;52805;51.074;5.842;2022-12-08T01:11:35;6.37;83.78
66035;HTU21D;52805;51.074;5.842;2022-12-08T01:14:01;6.40;83.83
66035;HTU21D;52805;51.074;5.842;2022-12-08T01:16:30;6.36;83.87
66035;HTU21D;52805;51.074;5.842;2022-12-08T01:18:58;6.36;83.98
66035;HTU21D;52805;51.074;5.842;2022-12-08T01:21:24;6.37;84.04
66035;HTU21D;52805;51.074;5.842;2022-12-08T01:23:52;6.36;83.94
66035;HTU21D;52805;51.074;5.842;2022-12-08T01:26:19;6.38;83.82
66035;HTU21D;52805;51.074;5.842;2022-12-08T01:28:46;6.41;83.52
66035;HTU21D;52805;51.074;5.842;2022-12-08T01:31:17;6.37;83.65
66035;HTU21D;52805;51.074;5.842;2022-12-08T01:33:44;6.37;83.77
66035;HTU21D;52805;51.074;5.842;2022-12-08T01:36:22;6.35;83.83
66035;HTU21D;52805;51.074;5.842;2022-12-08T01:38:49;6.35;84.00
66035;HTU21D;52805;51.074;5.842;2022-12-08T01:41:17;6.38;84.03
66035;HTU21D;52805;51.074;5.842;2022-12-08T01:46:25;6.37;83.97
66035;HTU21D;52805;51.074;5.842;2022-12-08T01:48:57;6.40;83.94
66035;HTU21D;52805;51.074;5.842;2022-12-08T01:51:25;6.42;83.79
66035;HTU21D;52805;51.074;5.842;2022-12-08T01:53:52;6.39;83.96
66035;HTU21D;52805;51.074;5.842;2022-12-08T01:56:28;6.42;83.69
66035;HTU21D;52805;51.074;5.842;2022-12-08T01:58:55;6.39;83.75
66035;HTU21D;52805;51.074;5.842;2022-12-08T02:01:21;6.39;83.74
66035;HTU21D;52805;51.074;5.842;2022-12-08T02:03:58;6.42;83.75
66035;HTU21D;52805;51.074;5.842;2022-12-08T02:06:27;6.41;83.55
66035;HTU21D;52805;51.074;5.842;2022-12-08T02:08:55;6.42;83.52
66035;HTU21D;52805;51.074;5.842;2022-12-08T02:11:22;6.40;83.72
66035;HTU21D;52805;51.074;5.842;2022-12-08T02:13:51;6.43;83.78
66035;HTU21D;52805;51.074;5.842;2022-12-08T02:22:03;6.42;83.70
66035;HTU21D;52805;51.074;5.842;2022-12-08T02:24:40;6.41;83.83
66035;HTU21D;52805;51.074;5.842;2022-12-08T02:36:10;6.39;83.93
66035;HTU21D;52805;51.074;5.842;2022-12-08T02:41:50;6.39;84.00
66035;HTU21D;52805;51.074;5.842;2022-12-08T02:44:45;6.41;84.10
66035;HTU21D;52805;51.074;5.842;2022-12-08T02:47:16;6.45;83.95
66035;HTU21D;52805;51.074;5.842;2022-12-08T02:49:43;6.45;83.62
66035;HTU21D;52805;51.074;5.842;2022-12-08T02:54:52;6.38;83.75
66035;HTU21D;52805;51.074;5.842;2022-12-08T03:00:21;6.34;83.93
66035;HTU21D;52805;51.074;5.842;2022-12-08T03:03:18;6.28;84.05
66035;HTU21D;52805;51.074;5.842;2022-12-08T03:06:10;6.30;84.16
66035;HTU21D;52805;51.074;5.842;2022-12-08T03:08:50;6.34;84.35
66035;HTU21D;52805;51.074;5.842;2022-12-08T03:14:09;6.38;84.07
66035;HTU21D;52805;51.074;5.842;2022-12-08T03:16:41;6.29;84.16
66035;HTU21D;52805;51.074;5.842;2022-12-08T03:21:46;6.28;84.32
66035;HTU21D;52805;51.074;5.842;2022-12-08T03:24:14;6.27;84.51
66035;HTU21D;52805;51.074;5.842;2022-12-08T03:26:53;6.30;84.18
66035;HTU21D;52805;51.074;5.842;2022-12-08T03:29:21;6.24;84.57
66035;HTU21D;52805;51.074;5.842;2022-12-08T03:31:53;6.27;84.68
66035;HTU21D;52805;51.074;5.842;2022-12-08T03:34:30;6.22;84.74
66035;HTU21D;52805;51.074;5.842;2022-12-08T03:36:59;6.24;84.91
66035;HTU21D;52805;51.074;5.842;2022-12-08T03:39:25;6.22;85.09
66035;HTU21D;52805;51.074;5.842;2022-12-08T03:41:53;6.21;85.20
66035;HTU21D;52805;51.074;5.842;2022-12-08T03:44:19;6.19;85.28
66035;HTU21D;52805;51.074;5.842;2022-12-08T03:46:45;6.19;85.17
66035;HTU21D;52805;51.074;5.842;2022-12-08T03:49:10;6.17;85.11
66035;HTU21D;52805;51.074;5.842;2022-12-08T03:51:36;6.12;85.51
66035;HTU21D;52805;51.074;5.842;2022-12-08T03:54:03;6.16;85.48
66035;HTU21D;52805;51.074;5.842;2022-12-08T03:56:31;6.22;85.16
66035;HTU21D;52805;51.074;5.842;2022-12-08T03:58:58;6.15;85.21
66035;HTU21D;52805;51.074;5.842;2022-12-08T04:01:23;6.15;85.45
66035;HTU21D;52805;51.074;5.842;2022-12-08T04:03:49;6.16;85.30
66035;HTU21D;52805;51.074;5.842;2022-12-08T04:06:15;6.11;85.54
66035;HTU21D;52805;51.074;5.842;2022-12-08T04:08:42;6.16;85.26
66035;HTU21D;52805;51.074;5.842;2022-12-08T04:11:09;6.14;85.46
66035;HTU21D;52805;51.074;5.842;2022-12-08T04:13:36;6.17;85.10
66035;HTU21D;52805;51.074;5.842;2022-12-08T04:16:02;6.21;84.73
66035;HTU21D;52805;51.074;5.842;2022-12-08T04:18:30;6.15;84.93
66035;HTU21D;52805;51.074;5.842;2022-12-08T04:20:55;6.20;84.77
66035;HTU21D;52805;51.074;5.842;2022-12-08T04:23:21;6.16;84.54
66035;HTU21D;52805;51.074;5.842;2022-12-08T04:25:47;6.14;84.53
66035;HTU21D;52805;51.074;5.842;2022-12-08T04:28:13;6.09;84.73
66035;HTU21D;52805;51.074;5.842;2022-12-08T04:30:39;6.10;84.83
66035;HTU21D;52805;51.074;5.842;2022-12-08T04:33:04;6.05;84.69
66035;HTU21D;52805;51.074;5.842;2022-12-08T04:35:30;6.06;84.82
66035;HTU21D;52805;51.074;5.842;2022-12-08T04:37:56;6.11;84.47
66035;HTU21D;52805;51.074;5.842;2022-12-08T04:40:21;6.05;84.56
66035;HTU21D;52805;51.074;5.842;2022-12-08T04:42:47;6.00;84.71
66035;HTU21D;52805;51.074;5.842;2022-12-08T04:45:14;5.98;84.83
66035;HTU21D;52805;51.074;5.842;2022-12-08T04:47:40;5.97;84.78
66035;HTU21D;52805;51.074;5.842;2022-12-08T04:50:07;5.99;84.61
66035;HTU21D;52805;51.074;5.842;2022-12-08T04:52:33;5.96;84.96
66035;HTU21D;52805;51.074;5.842;2022-12-08T04:54:59;6.00;84.68
66035;HTU21D;52805;51.074;5.842;2022-12-08T04:57:24;5.98;84.67
66035;HTU21D;52805;51.074;5.842;2022-12-08T04:59:50;5.96;84.92
66035;HTU21D;52805;51.074;5.842;2022-12-08T05:02:16;5.97;84.94
66035;HTU21D;52805;51.074;5.842;2022-12-08T05:04:41;6.04;84.90
66035;HTU21D;52805;51.074;5.842;2022-12-08T05:07:07;6.01;84.75
66035;HTU21D;52805;51.074;5.842;2022-12-08T05:09:33;6.07;84.58
66035;HTU21D;52805;51.074;5.842;2022-12-08T05:11:58;6.02;84.63
66035;HTU21D;52805;51.074;5.842;2022-12-08T05:14:24;6.01;84.51
66035;HTU21D;52805;51.074;5.842;2022-12-08T05:16:50;5.99;84.52
66035;HTU21D;52805;51.074;5.842;2022-12-08T05:19:16;5.97;84.48
66035;HTU21D;52805;51.074;5.842;2022-12-08T05:21:42;5.99;84.52
66035;HTU21D;52805;51.074;5.842;2022-12-08T05:24:08;6.01;84.39
66035;HTU21D;52805;51.074;5.842;2022-12-08T05:26:34;6.04;84.25
66035;HTU21D;52805;51.074;5.842;2022-12-08T05:28:59;5.99;84.10
66035;HTU21D;52805;51.074;5.842;2022-12-08T05:31:25;5.93;84.47
66035;HTU21D;52805;51.074;5.842;2022-12-08T05:33:52;5.91;84.70
66035;HTU21D;52805;51.074;5.842;2022-12-08T05:36:18;5.93;84.51
66035;HTU21D;52805;51.074;5.842;2022-12-08T05:38:44;5.94;84.41
66035;HTU21D;52805;51.074;5.842;2022-12-08T05:41:14;5.92;84.40
66035;HTU21D;52805;51.074;5.842;2022-12-08T05:43:40;5.94;84.35
66035;HTU21D;52805;51.074;5.842;2022-12-08T05:46:06;5.91;84.48
66035;HTU21D;52805;51.074;5.842;2022-12-08T05:48:32;5.91;84.48
66035;HTU21D;52805;51.074;5.842;2022-12-08T05:50:58;5.94;84.41
66035;HTU21D;52805;51.074;5.842;2022-12-08T05:53:23;5.92;84.36
66035;HTU21D;52805;51.074;5.842;2022-12-08T05:55:49;5.94;84.32
66035;HTU21D;52805;51.074;5.842;2022-12-08T05:58:17;5.90;84.42
66035;HTU21D;52805;51.074;5.842;2022-12-08T06:00:44;5.93;84.27
66035;HTU21D;52805;51.074;5.842;2022-12-08T06:03:12;5.89;84.54
66035;HTU21D;52805;51.074;5.842;2022-12-08T06:05:40;5.93;84.34
66035;HTU21D;52805;51.074;5.842;2022-12-08T06:08:06;5.89;84.55
66035;HTU21D;52805;51.074;5.842;2022-12-08T06:10:32;5.86;84.66
66035;HTU21D;52805;51.074;5.842;2022-12-08T06:12:58;5.85;84.57
66035;HTU21D;52805;51.074;5.842;2022-12-08T06:15:24;5.85;84.63
66035;HTU21D;52805;51.074;5.842;2022-12-08T06:17:50;5.82;84.65
66035;HTU21D;52805;51.074;5.842;2022-12-08T06:20:15;5.84;84.64
66035;HTU21D;52805;51.074;5.842;2022-12-08T06:22:42;5.82;84.68
66035;HTU21D;52805;51.074;5.842;2022-12-08T06:25:08;5.80;84.84
66035;HTU21D;52805;51.074;5.842;2022-12-08T06:27:33;5.86;84.59
66035;HTU21D;52805;51.074;5.842;2022-12-08T06:29:59;5.80;84.60
66035;HTU21D;52805;51.074;5.842;2022-12-08T06:32:25;5.79;84.60
66035;HTU21D;52805;51.074;5.842;2022-12-08T06:34:51;5.80;84.61
66035;HTU21D;52805;51.074;5.842;2022-12-08T06:37:18;5.82;84.61
66035;HTU21D;52805;51.074;5.842;2022-12-08T06:39:44;5.84;84.73
66035;HTU21D;52805;51.074;5.842;2022-12-08T06:42:10;5.87;84.48
66035;HTU21D;52805;51.074;5.842;2022-12-08T06:45:00;5.86;84.54
66035;HTU21D;52805;51.074;5.842;2022-12-08T06:47:26;5.90;84.33
66035;HTU21D;52805;51.074;5.842;2022-12-08T06:49:51;5.92;84.04
66035;HTU21D;52805;51.074;5.842;2022-12-08T06:52:17;5.85;84.24
66035;HTU21D;52805;51.074;5.842;2022-12-08T06:54:43;5.84;84.09
66035;HTU21D;52805;51.074;5.842;2022-12-08T06:57:08;5.81;84.31
66035;HTU21D;52805;51.074;5.842;2022-12-08T06:59:34;5.81;84.20
66035;HTU21D;52805;51.074;5.842;2022-12-08T07:02:00;5.76;84.07
66035;HTU21D;52805;51.074;5.842;2022-12-08T07:04:25;5.70;84.26
66035;HTU21D;52805;51.074;5.842;2022-12-08T07:06:51;5.70;84.31
66035;HTU21D;52805;51.074;5.842;2022-12-08T07:09:17;5.67;84.20
66035;HTU21D;52805;51.074;5.842;2022-12-08T07:11:42;5.63;84.48
66035;HTU21D;52805;51.074;5.842;2022-12-08T07:14:08;5.65;84.40
66035;HTU21D;52805;51.074;5.842;2022-12-08T07:16:35;5.64;84.27
66035;HTU21D;52805;51.074;5.842;2022-12-08T07:19:01;5.66;84.17
66035;HTU21D;52805;51.074;5.842;2022-12-08T07:21:26;5.61;84.33
66035;HTU21D;52805;51.074;5.842;2022-12-08T07:23:52;5.63;84.21
66035;HTU21D;52805;51.074;5.842;2022-12-08T07:26:18;5.64;84.21
66035;HTU21D;52805;51.074;5.842;2022-12-08T07:28:43;5.67;84.19
66035;HTU21D;52805;51.074;5.842;2022-12-08T07:31:18;5.65;84.01
66035;HTU21D;52805;51.074;5.842;2022-12-08T07:33:45;5.68;83.86
66035;HTU21D;52805;51.074;5.842;2022-12-08T07:36:10;5.64;83.85
66035;HTU21D;52805;51.074;5.842;2022-12-08T07:38:36;5.64;83.87
66035;HTU21D;52805;51.074;5.842;2022-12-08T07:41:02;5.60;84.01
66035;HTU21D;52805;51.074;5.842;2022-12-08T07:43:27;5.63;84.03
66035;HTU21D;52805;51.074;5.842;2022-12-08T07:45:53;5.65;84.00
66035;HTU21D;52805;51.074;5.842;2022-12-08T07:48:19;5.67;83.81
66035;HTU21D;52805;51.074;5.842;2022-12-08T07:50:45;5.61;84.11
66035;HTU21D;52805;51.074;5.842;2022-12-08T07:53:12;5.62;84.13
66035;HTU21D;52805;51.074;5.842;2022-12-08T07:55:41;5.61;84.19
66035;HTU21D;52805;51.074;5.842;2022-12-08T07:58:09;5.62;84.05
66035;HTU21D;52805;51.074;5.842;2022-12-08T08:00:39;5.56;84.10
66035;HTU21D;52805;51.074;5.842;2022-12-08T08:03:04;5.56;84.32
66035;HTU21D;52805;51.074;5.842;2022-12-08T08:05:30;5.57;84.18
66035;HTU21D;52805;51.074;5.842;2022-12-08T08:07:56;5.55;84.23
66035;HTU21D;52805;51.074;5.842;2022-12-08T08:10:21;5.55;83.80
66035;HTU21D;52805;51.074;5.842;2022-12-08T08:12:47;5.54;83.87
66035;HTU21D;52805;51.074;5.842;2022-12-08T08:15:13;5.52;83.79
66035;HTU21D;52805;51.074;5.842;2022-12-08T08:17:38;5.49;83.89
66035;HTU21D;52805;51.074;5.842;2022-12-08T08:20:06;5.52;84.00
66035;HTU21D;52805;51.074;5.842;2022-12-08T08:22:33;5.50;83.90
66035;HTU21D;52805;51.074;5.842;2022-12-08T08:24:59;5.55;83.90
66035;HTU21D;52805;51.074;5.842;2022-12-08T08:27:25;5.57;83.82
66035;HTU21D;52805;51.074;5.842;2022-12-08T08:29:51;5.56;83.92
66035;HTU21D;52805;51.074;5.842;2022-12-08T08:32:17;5.57;83.88
66035;HTU21D;52805;51.074;5.842;2022-12-08T08:34:43;5.62;83.68
66035;HTU21D;52805;51.074;5.842;2022-12-08T08:37:09;5.61;83.86
66035;HTU21D;52805;51.074;5.842;2022-12-08T08:39:35;5.59;84.03
66035;HTU21D;52805;51.074;5.842;2022-12-08T08:42:01;5.63;83.93
66035;HTU21D;52805;51.074;5.842;2022-12-08T08:44:26;5.67;83.72
66035;HTU21D;52805;51.074;5.842;2022-12-08T08:46:52;5.68;83.71
66035;HTU21D;52805;51.074;5.842;2022-12-08T08:49:18;5.69;83.75
66035;HTU21D;52805;51.074;5.842;2022-12-08T08:51:44;5.68;83.67
66035;HTU21D;52805;51.074;5.842;2022-12-08T08:54:10;5.68;83.81
66035;HTU21D;52805;51.074;5.842;2022-12-08T08:56:36;5.69;83.74
66035;HTU21D;52805;51.074;5.842;2022-12-08T08:59:02;5.70;83.80
66035;HTU21D;52805;51.074;5.842;2022-12-08T09:01:28;5.67;84.04
66035;HTU21D;52805;51.074;5.842;2022-12-08T09:03:55;5.71;83.95
66035;HTU21D;52805;51.074;5.842;2022-12-08T09:06:21;5.74;83.78
66035;HTU21D;52805;51.074;5.842;2022-12-08T09:08:48;5.75;83.77
66035;HTU21D;52805;51.074;5.842;2022-12-08T09:11:15;5.74;83.61
66035;HTU21D;52805;51.074;5.842;2022-12-08T09:13:43;5.77;83.52
66035;HTU21D;52805;51.074;5.842;2022-12-08T09:16:10;5.75;83.60
66035;HTU21D;52805;51.074;5.842;2022-12-08T09:18:36;5.77;83.71
66035;HTU21D;52805;51.074;5.842;2022-12-08T09:21:08;5.76;83.89
66035;HTU21D;52805;51.074;5.842;2022-12-08T09:23:35;5.79;83.86
66035;HTU21D;52805;51.074;5.842;2022-12-08T09:26:01;5.81;83.95
66035;HTU21D;52805;51.074;5.842;2022-12-08T09:28:28;5.85;83.81
66035;HTU21D;52805;51.074;5.842;2022-12-08T09:30:53;5.87;83.59
66035;HTU21D;52805;51.074;5.842;2022-12-08T09:33:19;5.93;83.49
66035;HTU21D;52805;51.074;5.842;2022-12-08T09:35:44;5.93;83.43
66035;HTU21D;52805;51.074;5.842;2022-12-08T09:38:11;5.94;83.40
66035;HTU21D;52805;51.074;5.842;2022-12-08T09:40:48;5.94;83.22
66035;HTU21D;52805;51.074;5.842;2022-12-08T09:46:00;5.94;83.23
66035;HTU21D;52805;51.074;5.842;2022-12-08T09:48:38;5.96;83.22
66035;HTU21D;52805;51.074;5.842;2022-12-08T09:51:05;5.94;83.16
66035;HTU21D;52805;51.074;5.842;2022-12-08T09:53:38;5.96;82.98
66035;HTU21D;52805;51.074;5.842;2022-12-08T09:56:19;5.93;82.91
66035;HTU21D;52805;51.074;5.842;2022-12-08T09:58:50;5.86;83.09
66035;HTU21D;52805;51.074;5.842;2022-12-08T10:01:19;5.83;83.30
66035;HTU21D;52805;51.074;5.842;2022-12-08T10:03:48;5.91;83.05
66035;HTU21D;52805;51.074;5.842;2022-12-08T10:06:22;5.92;82.81
66035;HTU21D;52805;51.074;5.842;2022-12-08T10:09:23;5.85;82.83
66035;HTU21D;52805;51.074;5.842;2022-12-08T10:11:56;5.87;83.03
66035;HTU21D;52805;51.074;5.842;2022-12-08T10:14:32;5.86;82.88
66035;HTU21D;52805;51.074;5.842;2022-12-08T10:17:26;5.92;82.65
66035;HTU21D;52805;51.074;5.842;2022-12-08T10:20:11;5.90;82.71
66035;HTU21D;52805;51.074;5.842;2022-12-08T10:22:39;5.89;82.53
66035;HTU21D;52805;51.074;5.842;2022-12-08T10:25:14;5.95;82.29
66035;HTU21D;52805;51.074;5.842;2022-12-08T10:27:42;5.97;82.16
66035;HTU21D;52805;51.074;5.842;2022-12-08T10:30:19;6.01;81.91
66035;HTU21D;52805;51.074;5.842;2022-12-08T10:32:49;6.02;81.88
66035;HTU21D;52805;51.074;5.842;2022-12-08T10:35:18;6.04;82.03
66035;HTU21D;52805;51.074;5.842;2022-12-08T10:37:58;6.12;82.07
66035;HTU21D;52805;51.074;5.842;2022-12-08T10:40:28;6.17;81.93
66035;HTU21D;52805;51.074;5.842;2022-12-08T10:42:56;6.22;81.80
66035;HTU21D;52805;51.074;5.842;2022-12-08T10:45:30;6.23;81.82
66035;HTU21D;52805;51.074;5.842;2022-12-08T10:48:02;6.29;81.78
66035;HTU21D;52805;51.074;5.842;2022-12-08T10:50:35;6.37;81.36
66035;HTU21D;52805;51.074;5.842;2022-12-08T10:53:18;6.36;80.94
66035;HTU21D;52805;51.074;5.842;2022-12-08T10:55:47;6.37;81.08
66035;HTU21D;52805;51.074;5.842;2022-12-08T10:58:24;6.41;81.01
66035;HTU21D;52805;51.074;5.842;2022-12-08T11:00:54;6.46;80.82
66035;HTU21D;52805;51.074;5.842;2022-12-08T11:03:34;6.58;80.45
66035;HTU21D;52805;51.074;5.842;2022-12-08T11:06:11;6.63;80.41
66035;HTU21D;52805;51.074;5.842;2022-12-08T11:08:49;6.65;80.20
66035;HTU21D;52805;51.074;5.842;2022-12-08T11:11:16;6.70;79.79
66035;HTU21D;52805;51.074;5.842;2022-12-08T11:13:42;6.68;79.71
66035;HTU21D;52805;51.074;5.842;2022-12-08T11:16:12;6.72;79.75
66035;HTU21D;52805;51.074;5.842;2022-12-08T11:18:44;6.75;79.37
66035;HTU21D;52805;51.074;5.842;2022-12-08T11:21:15;6.71;79.53
66035;HTU21D;52805;51.074;5.842;2022-12-08T11:23:45;6.76;79.32
66035;HTU21D;52805;51.074;5.842;2022-12-08T11:26:31;6.80;79.23
66035;HTU21D;52805;51.074;5.842;2022-12-08T11:28:58;6.76;79.18
66035;HTU21D;52805;51.074;5.842;2022-12-08T11:31:33;6.79;79.28
66035;HTU21D;52805;51.074;5.842;2022-12-08T11:34:05;6.79;79.33
66035;HTU21D;52805;51.074;5.842;2022-12-08T11:36:34;6.82;78.75
66035;HTU21D;52805;51.074;5.842;2022-12-08T11:39:02;6.81;78.93
66035;HTU21D;52805;51.074;5.842;2022-12-08T11:41:38;6.83;78.90
66035;HTU21D;52805;51.074;5.842;2022-12-08T11:47:30;6.90;78.69
66035;HTU21D;52805;51.074;5.842;2022-12-08T11:50:31;6.91;78.35
66035;HTU21D;52805;51.074;5.842;2022-12-08T11:53:05;6.98;78.27
66035;HTU21D;52805;51.074;5.842;2022-12-08T11:55:42;7.02;78.38
66035;HTU21D;52805;51.074;5.842;2022-12-08T12:00:50;7.08;77.39
66035;HTU21D;52805;51.074;5.842;2022-12-08T12:03:43;6.99;77.44
66035;HTU21D;52805;51.074;5.842;2022-12-08T12:09:14;7.02;77.30
66035;HTU21D;52805;51.074;5.842;2022-12-08T12:12:01;7.08;77.39
66035;HTU21D;52805;51.074;5.842;2022-12-08T12:19:51;7.15;76.64
66035;HTU21D;52805;51.074;5.842;2022-12-08T12:22:21;7.12;76.89
66035;HTU21D;52805;51.074;5.842;2022-12-08T12:24:50;7.13;76.82
66035;HTU21D;52805;51.074;5.842;2022-12-08T12:27:46;7.09;76.79
66035;HTU21D;52805;51.074;5.842;2022-12-08T12:30:25;7.05;76.62
66035;HTU21D;52805;51.074;5.842;2022-12-08T12:32:57;7.01;76.80
66035;HTU21D;52805;51.074;5.842;2022-12-08T12:35:29;7.00;76.94
66035;HTU21D;52805;51.074;5.842;2022-12-08T12:38:04;7.03;77.08
66035;HTU21D;52805;51.074;5.842;2022-12-08T12:40:59;7.00;76.85
66035;HTU21D;52805;51.074;5.842;2022-12-08T12:44:34;6.97;77.00
66035;HTU21D;52805;51.074;5.842;2022-12-08T12:47:14;6.99;76.82
66035;HTU21D;52805;51.074;5.842;2022-12-08T12:54:44;6.93;76.82
66035;HTU21D;52805;51.074;5.842;2022-12-08T12:57:36;6.94;76.79
66035;HTU21D;52805;51.074;5.842;2022-12-08T13:02:45;6.98;77.09
66035;HTU21D;52805;51.074;5.842;2022-12-08T13:08:04;7.05;76.83
66035;HTU21D;52805;51.074;5.842;2022-12-08T13:10:32;7.11;76.77
66035;HTU21D;52805;51.074;5.842;2022-12-08T13:18:24;7.17;75.99
66035;HTU21D;52805;51.074;5.842;2022-12-08T13:20:54;7.14;75.95
66035;HTU21D;52805;51.074;5.842;2022-12-08T13:26:24;7.13;75.83
66035;HTU21D;52805;51.074;5.842;2022-12-08T13:47:53;7.00;75.57
66035;HTU21D;52805;51.074;5.842;2022-12-08T13:50:29;6.98;75.70
66035;HTU21D;52805;51.074;5.842;2022-12-08T13:53:09;6.97;75.83
66035;HTU21D;52805;51.074;5.842;2022-12-08T13:55:48;6.97;75.84
66035;HTU21D;52805;51.074;5.842;2022-12-08T13:58:19;7.01;75.44
66035;HTU21D;52805;51.074;5.842;2022-12-08T14:01:15;6.95;75.55
66035;HTU21D;52805;51.074;5.842;2022-12-08T14:03:55;6.89;75.63
66035;HTU21D;52805;51.074;5.842;2022-12-08T14:06:34;6.87;75.94
66035;HTU21D;52805;51.074;5.842;2022-12-08T14:09:04;6.89;75.92
66035;HTU21D;52805;51.074;5.842;2022-12-08T14:11:35;6.94;75.60
66035;HTU21D;52805;51.074;5.842;2022-12-08T14:14:12;6.91;75.63
66035;HTU21D;52805;51.074;5.842;2022-12-08T14:16:41;6.89;75.85
66035;HTU21D;52805;51.074;5.842;2022-12-08T14:19:26;6.93;75.90
66035;HTU21D;52805;51.074;5.842;2022-12-08T14:21:56;6.91;75.99
66035;HTU21D;52805;51.074;5.842;2022-12-08T14:24:24;6.91;75.94
66035;HTU21D;52805;51.074;5.842;2022-12-08T14:26:53;6.95;75.70
66035;HTU21D;52805;51.074;5.842;2022-12-08T14:37:40;6.85;75.88
66035;HTU21D;52805;51.074;5.842;2022-12-08T14:45:30;6.76;76.41
66035;HTU21D;52805;51.074;5.842;2022-12-08T14:48:19;6.76;76.44
66035;HTU21D;52805;51.074;5.842;2022-12-08T14:53:37;6.70;76.63
66035;HTU21D;52805;51.074;5.842;2022-12-08T14:58:42;6.69;76.91
66035;HTU21D;52805;51.074;5.842;2022-12-08T15:01:13;6.67;77.15
66035;HTU21D;52805;51.074;5.842;2022-12-08T15:03:42;6.72;77.15
66035;HTU21D;52805;51.074;5.842;2022-12-08T15:06:09;6.71;77.11
66035;HTU21D;52805;51.074;5.842;2022-12-08T15:08:51;6.72;77.21
66035;HTU21D;52805;51.074;5.842;2022-12-08T15:13:48;6.72;77.10
66035;HTU21D;52805;51.074;5.842;2022-12-08T15:16:37;6.72;77.03
66035;HTU21D;52805;51.074;5.842;2022-12-08T15:19:41;6.69;76.76
66035;HTU21D;52805;51.074;5.842;2022-12-08T15:22:20;6.68;76.65
66035;HTU21D;52805;51.074;5.842;2022-12-08T15:24:47;6.66;76.39
66035;HTU21D;52805;51.074;5.842;2022-12-08T15:27:18;6.61;76.33
66035;HTU21D;52805;51.074;5.842;2022-12-08T15:29:46;6.59;76.42
66035;HTU21D;52805;51.074;5.842;2022-12-08T15:32:17;6.57;76.28
66035;HTU21D;52805;51.074;5.842;2022-12-08T15:34:43;6.55;76.35
66035;HTU21D;52805;51.074;5.842;2022-12-08T15:37:22;6.58;76.08
66035;HTU21D;52805;51.074;5.842;2022-12-08T15:39:48;6.51;76.23
66035;HTU21D;52805;51.074;5.842;2022-12-08T15:42:14;6.49;76.46
66035;HTU21D;52805;51.074;5.842;2022-12-08T15:44:41;6.50;76.56
66035;HTU21D;52805;51.074;5.842;2022-12-08T15:47:18;6.52;76.38
66035;HTU21D;52805;51.074;5.842;2022-12-08T15:49:45;6.53;76.31
66035;HTU21D;52805;51.074;5.842;2022-12-08T15:52:14;6.55;76.18
66035;HTU21D;52805;51.074;5.842;2022-12-08T15:54:40;6.55;76.15
66035;HTU21D;52805;51.074;5.842;2022-12-08T15:59:41;6.54;76.31
66035;HTU21D;52805;51.074;5.842;2022-12-08T16:02:11;6.58;76.40
66035;HTU21D;52805;51.074;5.842;2022-12-08T16:04:37;6.59;76.31
66035;HTU21D;52805;51.074;5.842;2022-12-08T16:07:05;6.60;76.16
66035;HTU21D;52805;51.074;5.842;2022-12-08T16:09:39;6.58;76.33
66035;HTU21D;52805;51.074;5.842;2022-12-08T16:12:17;6.58;76.23
66035;HTU21D;52805;51.074;5.842;2022-12-08T16:15:02;6.53;76.07
66035;HTU21D;52805;51.074;5.842;2022-12-08T16:17:28;6.49;76.30
66035;HTU21D;52805;51.074;5.842;2022-12-08T16:19:54;6.44;76.28
66035;HTU21D;52805;51.074;5.842;2022-12-08T16:22:23;6.37;76.60
66035;HTU21D;52805;51.074;5.842;2022-12-08T16:24:49;6.39;76.33
66035;HTU21D;52805;51.074;5.842;2022-12-08T16:27:21;6.26;76.57
66035;HTU21D;52805;51.074;5.842;2022-12-08T16:29:47;6.20;76.76
66035;HTU21D;52805;51.074;5.842;2022-12-08T16:32:14;6.19;77.01
66035;HTU21D;52805;51.074;5.842;2022-12-08T16:34:40;6.17;77.07
66035;HTU21D;52805;51.074;5.842;2022-12-08T16:37:06;6.15;77.23
66035;HTU21D;52805;51.074;5.842;2022-12-08T16:39:33;6.17;77.14
66035;HTU21D;52805;51.074;5.842;2022-12-08T16:41:58;6.21;76.95
66035;HTU21D;52805;51.074;5.842;2022-12-08T16:44:45;6.23;77.02
66035;HTU21D;52805;51.074;5.842;2022-12-08T16:47:11;6.26;76.95
66035;HTU21D;52805;51.074;5.842;2022-12-08T16:49:37;6.28;76.82
66035;HTU21D;52805;51.074;5.842;2022-12-08T16:52:04;6.25;76.68
66035;HTU21D;52805;51.074;5.842;2022-12-08T16:54:30;6.25;76.53
66035;HTU21D;52805;51.074;5.842;2022-12-08T16:56:56;6.20;76.66
66035;HTU21D;52805;51.074;5.842;2022-12-08T16:59:22;6.11;76.63
66035;HTU21D;52805;51.074;5.842;2022-12-08T17:01:48;6.06;76.80
66035;HTU21D;52805;51.074;5.842;2022-12-08T17:04:14;6.05;76.82
66035;HTU21D;52805;51.074;5.842;2022-12-08T17:06:40;5.99;77.02
66035;HTU21D;52805;51.074;5.842;2022-12-08T17:09:06;5.96;77.14
66035;HTU21D;52805;51.074;5.842;2022-12-08T17:11:32;5.97;77.30
66035;HTU21D;52805;51.074;5.842;2022-12-08T17:13:59;5.99;77.15
66035;HTU21D;52805;51.074;5.842;2022-12-08T17:16:25;5.96;77.34
66035;HTU21D;52805;51.074;5.842;2022-12-08T17:18:52;5.98;77.24
66035;HTU21D;52805;51.074;5.842;2022-12-08T17:21:18;5.99;77.25
66035;HTU21D;52805;51.074;5.842;2022-12-08T17:23:44;5.97;77.33
66035;HTU21D;52805;51.074;5.842;2022-12-08T17:26:12;5.98;77.27
66035;HTU21D;52805;51.074;5.842;2022-12-08T17:28:37;5.96;77.31
66035;HTU21D;52805;51.074;5.842;2022-12-08T17:31:09;5.98;77.29
66035;HTU21D;52805;51.074;5.842;2022-12-08T17:33:35;5.94;77.43
66035;HTU21D;52805;51.074;5.842;2022-12-08T17:36:00;5.87;77.56